sensor_id;sensor_type;location;lat;lon;timestamp;P1;durP1;ratioP1;P2;durP2;ratioP2
37903;SDS011;23738;50.422;18.758;2023-07-20T00:00:45;4.10;;;3.00;;
37903;SDS011;23738;50.422;18.758;2023-07-20T00:03:20;4.00;;;2.90;;
37903;SDS011;23738;50.422;18.758;2023-07-20T00:05:51;5.90;;;3.00;;
37903;SDS011;23738;50.422;18.758;2023-07-20T00:08:21;4.50;;;2.70;;
37903;SDS011;23738;50.422;18.758;2023-07-20T00:10:50;9.50;;;4.30;;
37903;SDS011;23738;50.422;18.758;2023-07-20T00:13:19;6.20;;;3.00;;
37903;SDS011;23738;50.422;18.758;2023-07-20T00:15:49;4.60;;;3.10;;
37903;SDS011;23738;50.422;18.758;2023-07-20T00:18:18;7.00;;;3.20;;
37903;SDS011;23738;50.422;18.758;2023-07-20T00:20:48;5.80;;;3.10;;
37903;SDS011;23738;50.422;18.758;2023-07-20T00:23:17;4.40;;;3.00;;
37903;SDS011;23738;50.422;18.758;2023-07-20T00:25:49;4.80;;;3.00;;
37903;SDS011;23738;50.422;18.758;2023-07-20T00:28:18;6.00;;;2.50;;
37903;SDS011;23738;50.422;18.758;2023-07-20T00:30:48;14.60;;;3.50;;
37903;SDS011;23738;50.422;18.758;2023-07-20T00:33:17;5.20;;;3.20;;
37903;SDS011;23738;50.422;18.758;2023-07-20T00:35:47;6.40;;;3.10;;
37903;SDS011;23738;50.422;18.758;2023-07-20T00:38:16;4.80;;;2.90;;
37903;SDS011;23738;50.422;18.758;2023-07-20T00:40:45;5.70;;;3.00;;
37903;SDS011;23738;50.422;18.758;2023-07-20T00:43:15;8.20;;;3.20;;
37903;SDS011;23738;50.422;18.758;2023-07-20T00:45:46;4.40;;;2.60;;
37903;SDS011;23738;50.422;18.758;2023-07-20T00:48:15;6.60;;;3.00;;
37903;SDS011;23738;50.422;18.758;2023-07-20T00:50:44;6.50;;;3.10;;
37903;SDS011;23738;50.422;18.758;2023-07-20T00:53:14;4.10;;;3.10;;
37903;SDS011;23738;50.422;18.758;2023-07-20T00:55:45;8.90;;;3.10;;
37903;SDS011;23738;50.422;18.758;2023-07-20T00:58:15;4.00;;;3.40;;
37903;SDS011;23738;50.422;18.758;2023-07-20T01:00:44;5.00;;;2.90;;
37903;SDS011;23738;50.422;18.758;2023-07-20T01:03:14;4.30;;;2.60;;
37903;SDS011;23738;50.422;18.758;2023-07-20T01:05:45;5.30;;;3.70;;
37903;SDS011;23738;50.422;18.758;2023-07-20T01:08:24;6.20;;;3.90;;
37903;SDS011;23738;50.422;18.758;2023-07-20T01:11:05;5.20;;;3.00;;
37903;SDS011;23738;50.422;18.758;2023-07-20T01:13:40;5.30;;;3.20;;
37903;SDS011;23738;50.422;18.758;2023-07-20T01:16:10;7.20;;;3.50;;
37903;SDS011;23738;50.422;18.758;2023-07-20T01:18:39;6.00;;;3.50;;
37903;SDS011;23738;50.422;18.758;2023-07-20T01:21:12;4.80;;;3.40;;
37903;SDS011;23738;50.422;18.758;2023-07-20T01:26:52;7.60;;;3.70;;
37903;SDS011;23738;50.422;18.758;2023-07-20T01:29:47;5.40;;;3.60;;
37903;SDS011;23738;50.422;18.758;2023-07-20T01:32:31;5.80;;;3.10;;
37903;SDS011;23738;50.422;18.758;2023-07-20T01:35:02;7.70;;;3.00;;
37903;SDS011;23738;50.422;18.758;2023-07-20T01:37:34;3.80;;;3.10;;
37903;SDS011;23738;50.422;18.758;2023-07-20T01:40:06;4.20;;;2.80;;
37903;SDS011;23738;50.422;18.758;2023-07-20T01:42:37;4.20;;;2.60;;
37903;SDS011;23738;50.422;18.758;2023-07-20T01:45:07;10.00;;;3.10;;
37903;SDS011;23738;50.422;18.758;2023-07-20T01:47:37;10.70;;;3.30;;
37903;SDS011;23738;50.422;18.758;2023-07-20T01:50:08;5.40;;;2.80;;
37903;SDS011;23738;50.422;18.758;2023-07-20T01:52:38;7.50;;;2.80;;
37903;SDS011;23738;50.422;18.758;2023-07-20T01:55:08;2.70;;;2.10;;
37903;SDS011;23738;50.422;18.758;2023-07-20T01:57:37;3.60;;;2.10;;
37903;SDS011;23738;50.422;18.758;2023-07-20T02:00:08;5.80;;;2.60;;
37903;SDS011;23738;50.422;18.758;2023-07-20T02:02:38;3.80;;;2.20;;
37903;SDS011;23738;50.422;18.758;2023-07-20T02:05:09;4.30;;;3.00;;
37903;SDS011;23738;50.422;18.758;2023-07-20T02:07:38;3.00;;;2.20;;
37903;SDS011;23738;50.422;18.758;2023-07-20T02:10:08;4.70;;;2.30;;
37903;SDS011;23738;50.422;18.758;2023-07-20T02:12:38;2.80;;;2.10;;
37903;SDS011;23738;50.422;18.758;2023-07-20T02:15:08;4.40;;;2.30;;
37903;SDS011;23738;50.422;18.758;2023-07-20T02:17:39;3.10;;;2.20;;
37903;SDS011;23738;50.422;18.758;2023-07-20T02:20:10;3.50;;;1.90;;
37903;SDS011;23738;50.422;18.758;2023-07-20T02:22:40;4.90;;;2.10;;
37903;SDS011;23738;50.422;18.758;2023-07-20T02:25:09;4.30;;;1.60;;
37903;SDS011;23738;50.422;18.758;2023-07-20T02:27:38;2.60;;;2.20;;
37903;SDS011;23738;50.422;18.758;2023-07-20T02:30:09;4.90;;;1.80;;
37903;SDS011;23738;50.422;18.758;2023-07-20T02:32:38;7.20;;;2.50;;
37903;SDS011;23738;50.422;18.758;2023-07-20T02:35:12;2.90;;;2.30;;
37903;SDS011;23738;50.422;18.758;2023-07-20T02:37:41;4.70;;;1.90;;
37903;SDS011;23738;50.422;18.758;2023-07-20T02:40:11;2.90;;;1.80;;
37903;SDS011;23738;50.422;18.758;2023-07-20T02:42:41;3.00;;;1.70;;
37903;SDS011;23738;50.422;18.758;2023-07-20T02:45:10;4.80;;;1.90;;
37903;SDS011;23738;50.422;18.758;2023-07-20T02:47:40;8.80;;;2.00;;
37903;SDS011;23738;50.422;18.758;2023-07-20T02:50:09;1.90;;;1.40;;
37903;SDS011;23738;50.422;18.758;2023-07-20T02:52:40;2.90;;;1.70;;
37903;SDS011;23738;50.422;18.758;2023-07-20T02:55:09;4.60;;;1.60;;
37903;SDS011;23738;50.422;18.758;2023-07-20T02:57:38;7.40;;;2.60;;
37903;SDS011;23738;50.422;18.758;2023-07-20T03:00:09;5.90;;;2.80;;
37903;SDS011;23738;50.422;18.758;2023-07-20T03:02:41;3.00;;;2.00;;
37903;SDS011;23738;50.422;18.758;2023-07-20T03:05:14;3.20;;;1.80;;
37903;SDS011;23738;50.422;18.758;2023-07-20T03:07:44;2.50;;;1.80;;
37903;SDS011;23738;50.422;18.758;2023-07-20T03:10:14;3.50;;;1.60;;
37903;SDS011;23738;50.422;18.758;2023-07-20T03:12:43;1.90;;;1.50;;
37903;SDS011;23738;50.422;18.758;2023-07-20T03:15:13;2.20;;;1.80;;
37903;SDS011;23738;50.422;18.758;2023-07-20T03:17:42;1.90;;;1.50;;
37903;SDS011;23738;50.422;18.758;2023-07-20T03:20:12;1.80;;;1.50;;
37903;SDS011;23738;50.422;18.758;2023-07-20T03:22:42;2.90;;;1.60;;
37903;SDS011;23738;50.422;18.758;2023-07-20T03:25:12;3.80;;;2.00;;
37903;SDS011;23738;50.422;18.758;2023-07-20T03:27:41;2.80;;;1.90;;
37903;SDS011;23738;50.422;18.758;2023-07-20T03:30:11;3.80;;;1.60;;
37903;SDS011;23738;50.422;18.758;2023-07-20T03:32:41;3.10;;;1.50;;
37903;SDS011;23738;50.422;18.758;2023-07-20T03:35:10;1.60;;;1.30;;
37903;SDS011;23738;50.422;18.758;2023-07-20T03:37:42;3.20;;;1.50;;
37903;SDS011;23738;50.422;18.758;2023-07-20T03:40:12;2.40;;;1.80;;
37903;SDS011;23738;50.422;18.758;2023-07-20T03:42:42;1.60;;;1.40;;
37903;SDS011;23738;50.422;18.758;2023-07-20T03:45:11;2.00;;;1.80;;
37903;SDS011;23738;50.422;18.758;2023-07-20T03:47:41;2.30;;;1.60;;
37903;SDS011;23738;50.422;18.758;2023-07-20T03:50:11;3.90;;;1.90;;
37903;SDS011;23738;50.422;18.758;2023-07-20T03:52:41;5.00;;;1.70;;
37903;SDS011;23738;50.422;18.758;2023-07-20T03:55:10;2.60;;;1.80;;
37903;SDS011;23738;50.422;18.758;2023-07-20T03:57:40;4.20;;;2.00;;
37903;SDS011;23738;50.422;18.758;2023-07-20T04:00:11;2.40;;;1.70;;
37903;SDS011;23738;50.422;18.758;2023-07-20T04:02:42;5.70;;;1.90;;
37903;SDS011;23738;50.422;18.758;2023-07-20T04:05:12;3.70;;;1.90;;
37903;SDS011;23738;50.422;18.758;2023-07-20T04:07:41;2.00;;;1.40;;
37903;SDS011;23738;50.422;18.758;2023-07-20T04:10:11;3.60;;;1.80;;
37903;SDS011;23738;50.422;18.758;2023-07-20T04:12:40;4.40;;;1.70;;
37903;SDS011;23738;50.422;18.758;2023-07-20T04:15:10;3.20;;;1.90;;
37903;SDS011;23738;50.422;18.758;2023-07-20T04:17:40;4.50;;;2.00;;
37903;SDS011;23738;50.422;18.758;2023-07-20T04:20:10;1.60;;;1.50;;
37903;SDS011;23738;50.422;18.758;2023-07-20T04:22:39;3.00;;;1.80;;
37903;SDS011;23738;50.422;18.758;2023-07-20T04:25:09;2.20;;;1.70;;
37903;SDS011;23738;50.422;18.758;2023-07-20T04:27:38;2.80;;;1.40;;
37903;SDS011;23738;50.422;18.758;2023-07-20T04:30:08;4.20;;;1.70;;
37903;SDS011;23738;50.422;18.758;2023-07-20T04:32:39;1.90;;;1.60;;
37903;SDS011;23738;50.422;18.758;2023-07-20T04:35:16;3.00;;;1.60;;
37903;SDS011;23738;50.422;18.758;2023-07-20T04:38:06;3.30;;;1.80;;
37903;SDS011;23738;50.422;18.758;2023-07-20T04:40:36;4.60;;;1.60;;
37903;SDS011;23738;50.422;18.758;2023-07-20T04:43:05;3.00;;;1.30;;
37903;SDS011;23738;50.422;18.758;2023-07-20T04:45:34;2.70;;;1.40;;
37903;SDS011;23738;50.422;18.758;2023-07-20T04:48:05;2.60;;;1.90;;
37903;SDS011;23738;50.422;18.758;2023-07-20T04:50:37;3.80;;;2.00;;
37903;SDS011;23738;50.422;18.758;2023-07-20T04:53:08;6.20;;;2.10;;
37903;SDS011;23738;50.422;18.758;2023-07-20T04:55:37;6.70;;;2.20;;
37903;SDS011;23738;50.422;18.758;2023-07-20T04:58:07;2.50;;;1.80;;
37903;SDS011;23738;50.422;18.758;2023-07-20T05:00:37;3.20;;;1.80;;
37903;SDS011;23738;50.422;18.758;2023-07-20T05:03:07;2.20;;;1.50;;
37903;SDS011;23738;50.422;18.758;2023-07-20T05:05:36;2.40;;;1.80;;
37903;SDS011;23738;50.422;18.758;2023-07-20T05:08:05;1.90;;;1.60;;
37903;SDS011;23738;50.422;18.758;2023-07-20T05:10:35;3.00;;;1.90;;
37903;SDS011;23738;50.422;18.758;2023-07-20T05:13:04;3.90;;;1.70;;
37903;SDS011;23738;50.422;18.758;2023-07-20T05:15:33;3.00;;;1.90;;
37903;SDS011;23738;50.422;18.758;2023-07-20T05:18:03;2.50;;;1.80;;
37903;SDS011;23738;50.422;18.758;2023-07-20T05:20:33;2.00;;;1.50;;
37903;SDS011;23738;50.422;18.758;2023-07-20T05:23:03;2.00;;;1.80;;
37903;SDS011;23738;50.422;18.758;2023-07-20T05:25:33;3.10;;;1.80;;
37903;SDS011;23738;50.422;18.758;2023-07-20T05:28:02;4.30;;;2.00;;
37903;SDS011;23738;50.422;18.758;2023-07-20T05:30:32;4.90;;;2.10;;
37903;SDS011;23738;50.422;18.758;2023-07-20T05:33:02;2.80;;;1.80;;
37903;SDS011;23738;50.422;18.758;2023-07-20T05:35:31;2.00;;;1.80;;
37903;SDS011;23738;50.422;18.758;2023-07-20T05:38:01;3.90;;;2.70;;
37903;SDS011;23738;50.422;18.758;2023-07-20T05:40:32;3.40;;;2.40;;
37903;SDS011;23738;50.422;18.758;2023-07-20T05:43:03;4.60;;;2.30;;
37903;SDS011;23738;50.422;18.758;2023-07-20T05:45:32;8.30;;;2.10;;
37903;SDS011;23738;50.422;18.758;2023-07-20T05:48:02;2.00;;;1.80;;
37903;SDS011;23738;50.422;18.758;2023-07-20T05:50:32;2.50;;;1.60;;
37903;SDS011;23738;50.422;18.758;2023-07-20T05:53:01;3.60;;;1.90;;
37903;SDS011;23738;50.422;18.758;2023-07-20T05:55:31;4.40;;;2.20;;
37903;SDS011;23738;50.422;18.758;2023-07-20T05:58:00;2.40;;;1.80;;
37903;SDS011;23738;50.422;18.758;2023-07-20T06:00:30;2.80;;;2.10;;
37903;SDS011;23738;50.422;18.758;2023-07-20T06:03:00;2.30;;;1.70;;
37903;SDS011;23738;50.422;18.758;2023-07-20T06:05:30;6.30;;;1.40;;
37903;SDS011;23738;50.422;18.758;2023-07-20T06:07:59;2.90;;;1.50;;
37903;SDS011;23738;50.422;18.758;2023-07-20T06:10:29;3.30;;;2.00;;
37903;SDS011;23738;50.422;18.758;2023-07-20T06:12:58;2.50;;;1.50;;
37903;SDS011;23738;50.422;18.758;2023-07-20T06:15:30;3.00;;;1.90;;
37903;SDS011;23738;50.422;18.758;2023-07-20T06:18:01;4.80;;;1.60;;
37903;SDS011;23738;50.422;18.758;2023-07-20T06:20:31;3.10;;;2.00;;
37903;SDS011;23738;50.422;18.758;2023-07-20T06:23:00;2.50;;;1.80;;
37903;SDS011;23738;50.422;18.758;2023-07-20T06:25:29;3.80;;;1.70;;
37903;SDS011;23738;50.422;18.758;2023-07-20T06:27:58;1.90;;;1.40;;
37903;SDS011;23738;50.422;18.758;2023-07-20T06:30:28;1.70;;;1.60;;
37903;SDS011;23738;50.422;18.758;2023-07-20T06:32:57;1.90;;;1.50;;
37903;SDS011;23738;50.422;18.758;2023-07-20T06:35:26;1.80;;;1.30;;
37903;SDS011;23738;50.422;18.758;2023-07-20T06:37:55;2.10;;;1.60;;
37903;SDS011;23738;50.422;18.758;2023-07-20T06:40:27;4.80;;;2.10;;
37903;SDS011;23738;50.422;18.758;2023-07-20T06:42:56;1.90;;;1.50;;
37903;SDS011;23738;50.422;18.758;2023-07-20T06:45:26;1.50;;;1.20;;
37903;SDS011;23738;50.422;18.758;2023-07-20T06:47:55;2.50;;;1.40;;
37903;SDS011;23738;50.422;18.758;2023-07-20T06:50:24;1.90;;;1.60;;
37903;SDS011;23738;50.422;18.758;2023-07-20T06:52:54;1.40;;;1.20;;
37903;SDS011;23738;50.422;18.758;2023-07-20T06:55:25;1.40;;;1.30;;
37903;SDS011;23738;50.422;18.758;2023-07-20T06:57:54;1.70;;;1.30;;
37903;SDS011;23738;50.422;18.758;2023-07-20T07:00:24;3.70;;;1.40;;
37903;SDS011;23738;50.422;18.758;2023-07-20T07:02:53;1.60;;;1.20;;
37903;SDS011;23738;50.422;18.758;2023-07-20T07:05:23;1.50;;;0.90;;
37903;SDS011;23738;50.422;18.758;2023-07-20T07:07:52;1.20;;;0.80;;
37903;SDS011;23738;50.422;18.758;2023-07-20T07:10:21;1.30;;;0.90;;
37903;SDS011;23738;50.422;18.758;2023-07-20T07:12:51;1.40;;;1.00;;
37903;SDS011;23738;50.422;18.758;2023-07-20T07:15:20;2.00;;;1.00;;
37903;SDS011;23738;50.422;18.758;2023-07-20T07:17:49;1.70;;;1.00;;
37903;SDS011;23738;50.422;18.758;2023-07-20T07:20:19;1.50;;;1.00;;
37903;SDS011;23738;50.422;18.758;2023-07-20T07:22:50;1.10;;;0.80;;
37903;SDS011;23738;50.422;18.758;2023-07-20T07:25:19;1.80;;;0.90;;
37903;SDS011;23738;50.422;18.758;2023-07-20T07:27:48;1.10;;;0.70;;
37903;SDS011;23738;50.422;18.758;2023-07-20T07:30:19;0.90;;;0.80;;
37903;SDS011;23738;50.422;18.758;2023-07-20T07:32:49;0.90;;;0.80;;
37903;SDS011;23738;50.422;18.758;2023-07-20T07:35:18;2.10;;;1.10;;
37903;SDS011;23738;50.422;18.758;2023-07-20T07:37:48;2.40;;;1.00;;
37903;SDS011;23738;50.422;18.758;2023-07-20T07:40:17;1.80;;;1.30;;
37903;SDS011;23738;50.422;18.758;2023-07-20T07:42:46;2.00;;;1.30;;
37903;SDS011;23738;50.422;18.758;2023-07-20T07:45:16;2.50;;;1.50;;
37903;SDS011;23738;50.422;18.758;2023-07-20T07:47:46;2.60;;;1.50;;
37903;SDS011;23738;50.422;18.758;2023-07-20T07:50:15;2.10;;;1.50;;
37903;SDS011;23738;50.422;18.758;2023-07-20T07:52:45;2.80;;;1.60;;
37903;SDS011;23738;50.422;18.758;2023-07-20T07:55:14;1.80;;;1.50;;
37903;SDS011;23738;50.422;18.758;2023-07-20T07:57:44;2.30;;;1.40;;
37903;SDS011;23738;50.422;18.758;2023-07-20T08:00:14;2.70;;;2.00;;
37903;SDS011;23738;50.422;18.758;2023-07-20T08:02:45;3.90;;;2.20;;
37903;SDS011;23738;50.422;18.758;2023-07-20T08:05:15;4.20;;;2.20;;
37903;SDS011;23738;50.422;18.758;2023-07-20T08:07:45;2.90;;;2.50;;
37903;SDS011;23738;50.422;18.758;2023-07-20T08:10:23;3.10;;;2.50;;
37903;SDS011;23738;50.422;18.758;2023-07-20T08:12:52;3.20;;;2.60;;
37903;SDS011;23738;50.422;18.758;2023-07-20T08:15:21;3.80;;;2.90;;
37903;SDS011;23738;50.422;18.758;2023-07-20T08:17:51;3.40;;;3.00;;
37903;SDS011;23738;50.422;18.758;2023-07-20T08:20:20;3.90;;;2.90;;
37903;SDS011;23738;50.422;18.758;2023-07-20T08:22:53;4.90;;;3.10;;
37903;SDS011;23738;50.422;18.758;2023-07-20T08:25:24;4.40;;;3.40;;
37903;SDS011;23738;50.422;18.758;2023-07-20T08:27:54;3.70;;;3.00;;
37903;SDS011;23738;50.422;18.758;2023-07-20T08:30:23;3.90;;;3.20;;
37903;SDS011;23738;50.422;18.758;2023-07-20T08:32:52;3.70;;;3.40;;
37903;SDS011;23738;50.422;18.758;2023-07-20T08:35:22;6.10;;;4.30;;
37903;SDS011;23738;50.422;18.758;2023-07-20T08:37:51;4.80;;;4.30;;
37903;SDS011;23738;50.422;18.758;2023-07-20T08:40:20;5.90;;;4.50;;
37903;SDS011;23738;50.422;18.758;2023-07-20T08:42:49;5.00;;;3.70;;
37903;SDS011;23738;50.422;18.758;2023-07-20T08:45:20;4.30;;;3.90;;
37903;SDS011;23738;50.422;18.758;2023-07-20T08:47:53;5.20;;;3.90;;
37903;SDS011;23738;50.422;18.758;2023-07-20T08:50:25;4.40;;;3.50;;
37903;SDS011;23738;50.422;18.758;2023-07-20T08:52:58;4.60;;;4.20;;
37903;SDS011;23738;50.422;18.758;2023-07-20T08:55:28;3.80;;;3.50;;
37903;SDS011;23738;50.422;18.758;2023-07-20T08:57:58;4.40;;;4.00;;
37903;SDS011;23738;50.422;18.758;2023-07-20T09:00:29;4.70;;;4.20;;
37903;SDS011;23738;50.422;18.758;2023-07-20T09:02:59;4.20;;;3.90;;
37903;SDS011;23738;50.422;18.758;2023-07-20T09:05:30;4.90;;;4.40;;
37903;SDS011;23738;50.422;18.758;2023-07-20T09:08:01;5.00;;;4.20;;
37903;SDS011;23738;50.422;18.758;2023-07-20T09:10:31;4.90;;;4.50;;
37903;SDS011;23738;50.422;18.758;2023-07-20T09:13:00;6.30;;;3.10;;
37903;SDS011;23738;50.422;18.758;2023-07-20T09:15:30;3.80;;;2.80;;
37903;SDS011;23738;50.422;18.758;2023-07-20T09:18:00;2.70;;;2.50;;
37903;SDS011;23738;50.422;18.758;2023-07-20T09:20:31;4.60;;;3.00;;
37903;SDS011;23738;50.422;18.758;2023-07-20T09:23:01;4.50;;;3.90;;
37903;SDS011;23738;50.422;18.758;2023-07-20T09:25:33;4.10;;;3.70;;
37903;SDS011;23738;50.422;18.758;2023-07-20T09:28:05;5.00;;;3.70;;
37903;SDS011;23738;50.422;18.758;2023-07-20T09:30:34;6.90;;;3.40;;
37903;SDS011;23738;50.422;18.758;2023-07-20T09:33:04;3.80;;;2.50;;
37903;SDS011;23738;50.422;18.758;2023-07-20T09:35:45;3.50;;;1.80;;
37903;SDS011;23738;50.422;18.758;2023-07-20T09:38:15;2.10;;;1.70;;
37903;SDS011;23738;50.422;18.758;2023-07-20T09:40:44;3.20;;;1.80;;
37903;SDS011;23738;50.422;18.758;2023-07-20T09:43:15;2.10;;;1.80;;
37903;SDS011;23738;50.422;18.758;2023-07-20T09:45:44;4.70;;;1.90;;
37903;SDS011;23738;50.422;18.758;2023-07-20T09:48:14;2.20;;;1.80;;
37903;SDS011;23738;50.422;18.758;2023-07-20T09:50:48;3.20;;;1.70;;
37903;SDS011;23738;50.422;18.758;2023-07-20T09:53:18;1.10;;;1.00;;
37903;SDS011;23738;50.422;18.758;2023-07-20T09:55:47;3.20;;;1.00;;
37903;SDS011;23738;50.422;18.758;2023-07-20T09:58:17;2.60;;;1.00;;
37903;SDS011;23738;50.422;18.758;2023-07-20T10:00:46;1.40;;;0.70;;
37903;SDS011;23738;50.422;18.758;2023-07-20T10:03:19;3.20;;;1.40;;
37903;SDS011;23738;50.422;18.758;2023-07-20T10:05:52;1.90;;;0.70;;
37903;SDS011;23738;50.422;18.758;2023-07-20T10:08:25;1.20;;;0.80;;
37903;SDS011;23738;50.422;18.758;2023-07-20T10:10:56;3.50;;;0.90;;
37903;SDS011;23738;50.422;18.758;2023-07-20T10:13:29;4.80;;;1.00;;
37903;SDS011;23738;50.422;18.758;2023-07-20T10:16:01;1.50;;;0.90;;
37903;SDS011;23738;50.422;18.758;2023-07-20T10:18:34;0.90;;;0.80;;
37903;SDS011;23738;50.422;18.758;2023-07-20T10:21:10;1.50;;;0.80;;
37903;SDS011;23738;50.422;18.758;2023-07-20T10:23:40;1.70;;;0.90;;
37903;SDS011;23738;50.422;18.758;2023-07-20T10:26:10;1.00;;;0.80;;
37903;SDS011;23738;50.422;18.758;2023-07-20T10:28:41;1.50;;;0.90;;
37903;SDS011;23738;50.422;18.758;2023-07-20T10:31:11;2.10;;;1.00;;
37903;SDS011;23738;50.422;18.758;2023-07-20T10:33:42;3.30;;;1.10;;
37903;SDS011;23738;50.422;18.758;2023-07-20T10:36:13;3.20;;;0.90;;
37903;SDS011;23738;50.422;18.758;2023-07-20T10:38:45;1.80;;;1.10;;
37903;SDS011;23738;50.422;18.758;2023-07-20T10:41:22;2.20;;;1.10;;
37903;SDS011;23738;50.422;18.758;2023-07-20T10:44:01;1.80;;;1.10;;
37903;SDS011;23738;50.422;18.758;2023-07-20T10:46:35;1.50;;;1.00;;
37903;SDS011;23738;50.422;18.758;2023-07-20T10:49:12;1.30;;;0.80;;
37903;SDS011;23738;50.422;18.758;2023-07-20T10:51:43;2.00;;;0.90;;
37903;SDS011;23738;50.422;18.758;2023-07-20T10:57:25;1.40;;;0.90;;
37903;SDS011;23738;50.422;18.758;2023-07-20T11:00:08;2.00;;;1.10;;
37903;SDS011;23738;50.422;18.758;2023-07-20T11:02:44;3.20;;;1.10;;
37903;SDS011;23738;50.422;18.758;2023-07-20T11:08:05;1.50;;;0.90;;
37903;SDS011;23738;50.422;18.758;2023-07-20T11:10:37;3.40;;;1.00;;
37903;SDS011;23738;50.422;18.758;2023-07-20T11:13:19;1.60;;;0.90;;
37903;SDS011;23738;50.422;18.758;2023-07-20T11:16:03;1.60;;;0.90;;
37903;SDS011;23738;50.422;18.758;2023-07-20T11:18:36;1.60;;;1.10;;
37903;SDS011;23738;50.422;18.758;2023-07-20T11:21:08;1.60;;;1.10;;
37903;SDS011;23738;50.422;18.758;2023-07-20T11:23:39;2.30;;;1.20;;
37903;SDS011;23738;50.422;18.758;2023-07-20T11:26:08;1.40;;;1.10;;
37903;SDS011;23738;50.422;18.758;2023-07-20T11:28:38;3.70;;;1.00;;
37903;SDS011;23738;50.422;18.758;2023-07-20T11:31:08;2.00;;;1.20;;
37903;SDS011;23738;50.422;18.758;2023-07-20T11:33:37;3.50;;;1.40;;
37903;SDS011;23738;50.422;18.758;2023-07-20T11:36:07;1.80;;;1.20;;
37903;SDS011;23738;50.422;18.758;2023-07-20T11:38:37;2.10;;;1.20;;
37903;SDS011;23738;50.422;18.758;2023-07-20T11:41:08;2.10;;;1.30;;
37903;SDS011;23738;50.422;18.758;2023-07-20T11:43:38;1.10;;;1.00;;
37903;SDS011;23738;50.422;18.758;2023-07-20T11:46:08;3.30;;;1.00;;
37903;SDS011;23738;50.422;18.758;2023-07-20T11:48:38;1.80;;;1.00;;
37903;SDS011;23738;50.422;18.758;2023-07-20T11:51:07;1.10;;;0.90;;
37903;SDS011;23738;50.422;18.758;2023-07-20T11:56:11;1.80;;;1.00;;
37903;SDS011;23738;50.422;18.758;2023-07-20T11:58:43;2.80;;;1.00;;
37903;SDS011;23738;50.422;18.758;2023-07-20T12:01:13;1.50;;;1.00;;
37903;SDS011;23738;50.422;18.758;2023-07-20T12:03:43;1.10;;;0.80;;
37903;SDS011;23738;50.422;18.758;2023-07-20T12:06:12;3.50;;;0.90;;
37903;SDS011;23738;50.422;18.758;2023-07-20T12:08:42;4.10;;;1.00;;
37903;SDS011;23738;50.422;18.758;2023-07-20T12:11:12;1.50;;;1.00;;
37903;SDS011;23738;50.422;18.758;2023-07-20T12:13:41;2.10;;;1.00;;
37903;SDS011;23738;50.422;18.758;2023-07-20T12:16:12;1.20;;;1.10;;
37903;SDS011;23738;50.422;18.758;2023-07-20T12:18:43;3.80;;;1.20;;
37903;SDS011;23738;50.422;18.758;2023-07-20T12:21:13;2.10;;;1.10;;
37903;SDS011;23738;50.422;18.758;2023-07-20T12:23:42;3.30;;;1.10;;
37903;SDS011;23738;50.422;18.758;2023-07-20T12:26:13;1.90;;;1.00;;
37903;SDS011;23738;50.422;18.758;2023-07-20T12:28:43;1.50;;;0.70;;
37903;SDS011;23738;50.422;18.758;2023-07-20T12:31:12;3.40;;;0.90;;
37903;SDS011;23738;50.422;18.758;2023-07-20T12:33:42;1.10;;;0.70;;
37903;SDS011;23738;50.422;18.758;2023-07-20T12:36:11;1.70;;;1.20;;
37903;SDS011;23738;50.422;18.758;2023-07-20T12:38:40;1.90;;;0.90;;
37903;SDS011;23738;50.422;18.758;2023-07-20T12:41:11;4.00;;;1.10;;
37903;SDS011;23738;50.422;18.758;2023-07-20T12:43:41;2.00;;;1.00;;
37903;SDS011;23738;50.422;18.758;2023-07-20T12:46:11;3.60;;;0.90;;
37903;SDS011;23738;50.422;18.758;2023-07-20T12:48:41;2.30;;;0.80;;
37903;SDS011;23738;50.422;18.758;2023-07-20T12:51:11;2.40;;;0.70;;
37903;SDS011;23738;50.422;18.758;2023-07-20T12:53:41;4.20;;;1.20;;
37903;SDS011;23738;50.422;18.758;2023-07-20T12:56:10;1.30;;;0.90;;
37903;SDS011;23738;50.422;18.758;2023-07-20T12:58:39;1.70;;;1.00;;
37903;SDS011;23738;50.422;18.758;2023-07-20T13:01:09;3.40;;;0.80;;
37903;SDS011;23738;50.422;18.758;2023-07-20T13:03:38;2.10;;;1.00;;
37903;SDS011;23738;50.422;18.758;2023-07-20T13:06:07;1.60;;;1.00;;
37903;SDS011;23738;50.422;18.758;2023-07-20T13:08:37;1.60;;;1.00;;
37903;SDS011;23738;50.422;18.758;2023-07-20T13:11:06;1.90;;;0.90;;
37903;SDS011;23738;50.422;18.758;2023-07-20T13:13:36;1.30;;;1.00;;
37903;SDS011;23738;50.422;18.758;2023-07-20T13:16:05;0.90;;;0.80;;
37903;SDS011;23738;50.422;18.758;2023-07-20T13:18:34;0.80;;;0.70;;
37903;SDS011;23738;50.422;18.758;2023-07-20T13:21:04;1.60;;;0.80;;
37903;SDS011;23738;50.422;18.758;2023-07-20T13:23:36;1.70;;;0.90;;
37903;SDS011;23738;50.422;18.758;2023-07-20T13:26:06;3.10;;;0.70;;
37903;SDS011;23738;50.422;18.758;2023-07-20T13:28:35;1.10;;;0.70;;
37903;SDS011;23738;50.422;18.758;2023-07-20T13:31:04;0.50;;;0.50;;
37903;SDS011;23738;50.422;18.758;2023-07-20T13:33:35;1.20;;;0.50;;
37903;SDS011;23738;50.422;18.758;2023-07-20T13:36:05;2.20;;;0.60;;
37903;SDS011;23738;50.422;18.758;2023-07-20T13:38:35;5.40;;;0.70;;
37903;SDS011;23738;50.422;18.758;2023-07-20T13:41:04;1.90;;;0.60;;
37903;SDS011;23738;50.422;18.758;2023-07-20T13:43:33;2.30;;;0.80;;
37903;SDS011;23738;50.422;18.758;2023-07-20T13:46:03;1.40;;;0.90;;
37903;SDS011;23738;50.422;18.758;2023-07-20T13:48:32;1.50;;;0.90;;
37903;SDS011;23738;50.422;18.758;2023-07-20T13:51:01;2.20;;;1.00;;
37903;SDS011;23738;50.422;18.758;2023-07-20T13:53:30;3.60;;;2.30;;
37903;SDS011;23738;50.422;18.758;2023-07-20T13:56:00;2.00;;;1.40;;
37903;SDS011;23738;50.422;18.758;2023-07-20T13:58:30;1.80;;;1.00;;
37903;SDS011;23738;50.422;18.758;2023-07-20T14:01:00;1.00;;;0.70;;
37903;SDS011;23738;50.422;18.758;2023-07-20T14:03:29;0.70;;;0.60;;
37903;SDS011;23738;50.422;18.758;2023-07-20T14:05:58;1.40;;;0.70;;
37903;SDS011;23738;50.422;18.758;2023-07-20T14:08:28;1.70;;;0.60;;
37903;SDS011;23738;50.422;18.758;2023-07-20T14:10:58;2.20;;;0.60;;
37903;SDS011;23738;50.422;18.758;2023-07-20T14:13:27;1.80;;;0.60;;
37903;SDS011;23738;50.422;18.758;2023-07-20T14:15:57;1.80;;;0.90;;
37903;SDS011;23738;50.422;18.758;2023-07-20T14:18:27;1.20;;;0.50;;
37903;SDS011;23738;50.422;18.758;2023-07-20T14:20:56;1.30;;;0.60;;
37903;SDS011;23738;50.422;18.758;2023-07-20T14:23:26;2.00;;;0.70;;
37903;SDS011;23738;50.422;18.758;2023-07-20T14:25:56;2.20;;;0.40;;
37903;SDS011;23738;50.422;18.758;2023-07-20T14:28:25;4.50;;;0.50;;
37903;SDS011;23738;50.422;18.758;2023-07-20T14:30:55;1.10;;;0.70;;
37903;SDS011;23738;50.422;18.758;2023-07-20T14:33:24;1.80;;;0.60;;
37903;SDS011;23738;50.422;18.758;2023-07-20T14:35:53;0.50;;;0.40;;
37903;SDS011;23738;50.422;18.758;2023-07-20T14:38:23;1.60;;;0.50;;
37903;SDS011;23738;50.422;18.758;2023-07-20T14:40:52;2.90;;;0.60;;
37903;SDS011;23738;50.422;18.758;2023-07-20T14:43:21;1.20;;;0.50;;
37903;SDS011;23738;50.422;18.758;2023-07-20T14:45:50;4.90;;;0.60;;
37903;SDS011;23738;50.422;18.758;2023-07-20T14:48:20;3.50;;;0.50;;
37903;SDS011;23738;50.422;18.758;2023-07-20T14:50:50;0.80;;;0.50;;
37903;SDS011;23738;50.422;18.758;2023-07-20T14:53:19;1.70;;;0.60;;
37903;SDS011;23738;50.422;18.758;2023-07-20T14:55:48;0.70;;;0.40;;
37903;SDS011;23738;50.422;18.758;2023-07-20T14:58:18;2.10;;;0.60;;
37903;SDS011;23738;50.422;18.758;2023-07-20T15:00:48;2.80;;;0.60;;
37903;SDS011;23738;50.422;18.758;2023-07-20T15:03:17;7.10;;;0.50;;